createdAt,value
2019-01-23T00:00:43.196Z,99.47
2019-01-23T00:01:30.429Z,92.12
2019-01-23T00:02:06.342Z,94.83
2019-01-23T00:02:41.955Z,100.55
2019-01-23T00:03:17.492Z,97.72
2019-01-23T00:03:53.241Z,94.13
2019-01-23T00:04:28.785Z,87.53
2019-01-23T00:05:04.715Z,100.50
2019-01-23T00:05:40.269Z,84.07
2019-01-23T00:06:15.964Z,92.57
2019-01-23T00:06:51.690Z,94.05
2019-01-23T00:07:27.358Z,88.47
2019-01-23T00:08:02.969Z,94.58
2019-01-23T00:08:38.638Z,94.28
2019-01-23T00:09:14.238Z,100.02
2019-01-23T00:09:49.780Z,82.02
2019-01-23T00:10:25.517Z,90.45
2019-01-23T00:11:02.528Z,94.42
2019-01-23T00:11:38.495Z,90.75
2019-01-23T00:12:14.215Z,98.85
2019-01-23T00:12:49.814Z,90.65
2019-01-23T00:13:25.652Z,105.15
2019-01-23T00:14:01.300Z,88.95
2019-01-23T00:14:37.001Z,94.40
2019-01-23T00:15:12.673Z,97.37
2019-01-23T00:15:48.439Z,96.20
2019-01-23T00:16:24.271Z,89.47
2019-01-23T00:16:59.824Z,87.05
2019-01-23T00:17:35.552Z,94.30
2019-01-23T00:18:11.152Z,90.10
2019-01-23T00:18:46.851Z,106.47
2019-01-23T00:19:22.494Z,102.07
2019-01-23T00:19:58.372Z,98.07
2019-01-23T00:20:34.123Z,96.20
2019-01-23T00:21:09.950Z,102.47
2019-01-23T00:21:45.570Z,87.33
2019-01-23T00:22:21.392Z,84.97
2019-01-23T00:22:57.060Z,95.17
2019-01-23T00:23:32.669Z,104.58
2019-01-23T00:24:08.348Z,104.20
2019-01-23T00:24:43.939Z,99.20
2019-01-23T00:25:19.465Z,106.97
2019-01-23T00:25:55.298Z,92.97
2019-01-23T00:26:30.825Z,97.20
2019-01-23T00:27:06.489Z,101.50
2019-01-23T00:27:42.199Z,94.22
2019-01-23T00:28:17.835Z,101.12
2019-01-23T00:28:53.392Z,100.70
2019-01-23T00:29:29.231Z,100.50
2019-01-23T00:30:06.075Z,102.17
2019-01-23T00:30:41.837Z,109.17
2019-01-23T00:31:17.519Z,97.57
2019-01-23T00:31:53.101Z,95.50
2019-01-23T00:32:28.756Z,96.63
2019-01-23T00:33:04.467Z,108.55
2019-01-23T00:33:40.073Z,89.85
2019-01-23T00:34:15.664Z,96.53
2019-01-23T00:34:51.400Z,95.90
2019-01-23T00:35:27.143Z,96.75
2019-01-23T00:36:02.720Z,101.55
2019-01-23T00:36:38.300Z,98.35
2019-01-23T00:37:13.913Z,109.40
2019-01-23T00:37:49.555Z,97.90
2019-01-23T00:38:25.085Z,97.90
2019-01-23T00:39:00.813Z,101.67
2019-01-23T00:39:36.565Z,100.15
2019-01-23T00:40:12.101Z,97.12
2019-01-23T00:40:47.643Z,94.75
2019-01-23T00:41:23.252Z,95.55
2019-01-23T00:41:58.831Z,87.88
2019-01-23T00:42:34.541Z,92.47
2019-01-23T00:43:10.204Z,92.50
2019-01-23T00:43:45.901Z,93.60
2019-01-23T00:44:21.730Z,96.42
2019-01-23T00:44:57.275Z,90.12
2019-01-23T00:45:33.119Z,92.65
2019-01-23T00:46:08.701Z,89.47
2019-01-23T00:46:44.394Z,93.40
2019-01-23T00:47:19.934Z,94.97
2019-01-23T00:47:55.628Z,85.22
2019-01-23T00:48:31.413Z,93.52
2019-01-23T00:49:07.045Z,98.40
2019-01-23T00:49:43.061Z,96.00
2019-01-23T00:50:18.927Z,93.00
2019-01-23T00:50:54.657Z,93.05
2019-01-23T00:51:30.240Z,92.02
2019-01-23T00:52:06.047Z,88.45
2019-01-23T00:52:41.758Z,97.82
2019-01-23T00:53:17.398Z,86.00
2019-01-23T00:53:53.007Z,103.47
2019-01-23T00:54:28.678Z,89.13
2019-01-23T00:55:04.958Z,97.45
2019-01-23T00:55:40.638Z,86.85
2019-01-23T00:56:16.278Z,94.97
2019-01-23T00:56:52.019Z,100.33
2019-01-23T00:57:27.564Z,97.92
2019-01-23T00:58:03.179Z,101.35
2019-01-23T00:58:38.807Z,95.47
2019-01-23T00:59:14.371Z,99.13
2019-01-23T00:59:49.894Z,92.97
2019-01-23T01:00:26.711Z,96.57
2019-01-23T01:01:02.817Z,95.30
2019-01-23T01:01:38.438Z,100.85
2019-01-23T01:02:14.024Z,101.67
2019-01-23T01:02:49.868Z,89.70
2019-01-23T01:03:25.408Z,99.25
2019-01-23T01:04:00.971Z,92.53
2019-01-23T01:04:36.625Z,89.17
2019-01-23T01:05:12.613Z,90.72
2019-01-23T01:05:48.491Z,100.07
2019-01-23T01:06:24.233Z,84.10
2019-01-23T01:06:59.795Z,85.47
2019-01-23T01:07:35.400Z,80.40
2019-01-23T01:08:11.444Z,82.95
2019-01-23T01:08:47.045Z,88.25
2019-01-23T01:09:22.634Z,72.97
2019-01-23T01:09:58.290Z,86.70
2019-01-23T01:10:33.916Z,79.80
2019-01-23T01:11:09.485Z,77.78
2019-01-23T01:11:45.004Z,81.55
2019-01-23T01:12:20.608Z,85.28
2019-01-23T01:12:56.231Z,78.07
2019-01-23T01:13:31.948Z,80.67
2019-01-23T01:14:07.615Z,87.35
2019-01-23T01:14:43.358Z,78.10
2019-01-23T01:15:19.279Z,87.85
2019-01-23T01:15:54.918Z,83.10
2019-01-23T01:16:30.456Z,83.37
2019-01-23T01:17:06.411Z,84.15
2019-01-23T01:17:42.026Z,86.70
2019-01-23T01:18:17.673Z,91.05
2019-01-23T01:18:53.329Z,86.65
2019-01-23T01:19:29.094Z,85.97
2019-01-23T01:20:05.578Z,94.10
2019-01-23T01:20:41.243Z,88.40
2019-01-23T01:21:16.998Z,87.95
2019-01-23T01:21:52.741Z,84.20
2019-01-23T01:22:28.262Z,88.37
2019-01-23T01:23:04.105Z,80.83
2019-01-23T01:23:39.843Z,82.62
2019-01-23T01:24:15.764Z,75.78
2019-01-23T01:24:51.558Z,86.47
2019-01-23T01:25:27.199Z,78.85
2019-01-23T01:26:02.754Z,79.00
2019-01-23T01:26:38.322Z,84.60
2019-01-23T01:27:13.932Z,80.77
2019-01-23T01:27:49.559Z,87.08
2019-01-23T01:28:25.220Z,74.85
2019-01-23T01:29:00.849Z,83.47
2019-01-23T01:29:36.741Z,78.55
2019-01-23T01:30:18.039Z,78.45
2019-01-23T01:30:53.776Z,86.92
2019-01-23T01:31:29.630Z,74.70
2019-01-23T01:32:05.258Z,84.55
2019-01-23T01:32:41.014Z,77.53
2019-01-23T01:33:16.834Z,78.75
2019-01-23T01:33:52.474Z,79.70
2019-01-23T01:34:28.012Z,81.42
2019-01-23T01:35:03.605Z,75.08
2019-01-23T01:35:39.195Z,84.90
2019-01-23T01:36:14.841Z,88.37
2019-01-23T01:36:50.387Z,82.00
2019-01-23T01:37:26.106Z,75.52
2019-01-23T01:38:01.803Z,80.38
2019-01-23T01:38:37.261Z,73.85
2019-01-23T01:39:12.894Z,85.30
2019-01-23T01:39:48.429Z,76.50
2019-01-23T01:40:24.161Z,80.17
2019-01-23T01:40:59.660Z,83.12
2019-01-23T01:41:35.243Z,83.27
2019-01-23T01:42:11.076Z,89.58
2019-01-23T01:42:46.611Z,87.57
2019-01-23T01:43:22.515Z,88.03
2019-01-23T01:43:58.174Z,83.30
2019-01-23T01:44:33.889Z,79.60
2019-01-23T01:45:10.083Z,90.83
2019-01-23T01:45:45.734Z,83.92
2019-01-23T01:46:21.444Z,82.37
2019-01-23T01:46:57.135Z,86.63
2019-01-23T01:47:32.910Z,83.97
2019-01-23T01:48:08.561Z,98.97
2019-01-23T01:48:44.359Z,96.25
2019-01-23T01:49:19.931Z,93.37
2019-01-23T01:49:55.556Z,85.30
2019-01-23T01:50:31.194Z,91.50
2019-01-23T01:51:06.975Z,87.02
2019-01-23T01:51:42.667Z,84.85
2019-01-23T01:52:18.204Z,87.75
2019-01-23T01:52:53.845Z,79.45
2019-01-23T01:53:29.465Z,80.77
2019-01-23T01:54:05.080Z,76.57
2019-01-23T01:54:40.852Z,83.52
2019-01-23T01:55:16.870Z,78.78
2019-01-23T01:55:52.479Z,78.50
2019-01-23T01:56:28.429Z,73.12
2019-01-23T01:57:04.107Z,78.90
2019-01-23T01:57:39.921Z,81.60
2019-01-23T01:58:15.587Z,88.60
2019-01-23T01:58:51.347Z,73.85
2019-01-23T01:59:26.878Z,74.22
2019-01-23T02:00:02.390Z,71.95
2019-01-23T02:00:38.601Z,76.30
2019-01-23T02:01:14.085Z,74.97
2019-01-23T02:01:49.840Z,73.52
2019-01-23T02:02:25.631Z,78.40
2019-01-23T02:03:01.238Z,79.97
2019-01-23T02:03:36.919Z,82.27
2019-01-23T02:04:12.560Z,80.90
2019-01-23T02:04:48.114Z,84.13
2019-01-23T02:05:23.678Z,74.03
2019-01-23T02:05:59.339Z,78.05
2019-01-23T02:06:35.120Z,68.80
2019-01-23T02:07:10.687Z,74.32
2019-01-23T02:07:46.561Z,72.42
2019-01-23T02:08:22.206Z,70.08
2019-01-23T02:08:57.964Z,76.72
2019-01-23T02:09:35.572Z,65.80
2019-01-23T02:10:12.921Z,75.03
2019-01-23T02:10:48.564Z,71.70
2019-01-23T02:11:24.289Z,68.92
2019-01-23T02:11:59.954Z,69.82
2019-01-23T02:12:35.738Z,68.55
2019-01-23T02:13:11.392Z,70.72
2019-01-23T02:13:47.023Z,69.30
2019-01-23T02:14:22.762Z,68.75
2019-01-23T02:14:58.390Z,72.08
2019-01-23T02:15:34.103Z,68.70
2019-01-23T02:16:09.843Z,65.05
2019-01-23T02:16:45.520Z,76.12
2019-01-23T02:17:21.208Z,71.30
2019-01-23T02:17:56.906Z,68.28
2019-01-23T02:18:32.519Z,68.72
2019-01-23T02:19:08.077Z,73.50
2019-01-23T02:19:43.780Z,68.95
2019-01-23T02:20:27.089Z,74.58
2019-01-23T02:21:02.881Z,60.78
2019-01-23T02:21:38.726Z,65.72
2019-01-23T02:22:14.879Z,77.67
2019-01-23T02:22:50.696Z,66.37
2019-01-23T02:23:26.395Z,73.62
2019-01-23T02:24:02.250Z,73.75
2019-01-23T02:24:38.028Z,67.67
2019-01-23T02:25:14.142Z,73.30
2019-01-23T02:25:49.860Z,74.58
2019-01-23T02:26:25.630Z,69.62
2019-01-23T02:27:01.247Z,70.95
2019-01-23T02:27:36.980Z,68.42
2019-01-23T02:28:12.628Z,65.57
2019-01-23T02:28:48.572Z,71.28
2019-01-23T02:29:24.157Z,77.45
2019-01-23T02:29:59.942Z,69.90
2019-01-23T02:30:35.846Z,73.02
2019-01-23T02:31:11.548Z,77.20
2019-01-23T02:31:47.579Z,67.45
2019-01-23T02:32:23.221Z,76.00
2019-01-23T02:32:58.694Z,65.05
2019-01-23T02:33:34.360Z,71.15
2019-01-23T02:34:10.013Z,75.45
2019-01-23T02:34:46.204Z,73.45
2019-01-23T02:35:21.994Z,74.75
2019-01-23T02:35:57.573Z,74.87
2019-01-23T02:36:33.159Z,80.40
2019-01-23T02:37:08.890Z,67.05
2019-01-23T02:37:44.641Z,71.02
2019-01-23T02:38:20.347Z,68.50
2019-01-23T02:38:55.868Z,69.45
2019-01-23T02:39:31.719Z,73.83
2019-01-23T02:40:09.335Z,66.00
2019-01-23T02:40:45.072Z,70.35
2019-01-23T02:41:20.999Z,62.93
2019-01-23T02:41:56.949Z,76.30
2019-01-23T02:42:32.567Z,75.22
2019-01-23T02:43:08.163Z,72.55
2019-01-23T02:43:43.725Z,66.57
2019-01-23T02:44:19.523Z,68.57
2019-01-23T02:44:55.087Z,65.30
2019-01-23T02:45:30.631Z,66.90
2019-01-23T02:46:06.395Z,62.03
2019-01-23T02:46:42.351Z,64.58
2019-01-23T02:47:18.176Z,69.90
2019-01-23T02:47:53.780Z,71.05
2019-01-23T02:48:29.302Z,69.35
2019-01-23T02:49:05.164Z,70.37
2019-01-23T02:49:40.800Z,67.00
2019-01-23T02:50:16.598Z,65.47
2019-01-23T02:50:52.148Z,71.97
2019-01-23T02:51:27.685Z,73.55
2019-01-23T02:52:03.400Z,75.87
2019-01-23T02:52:39.180Z,70.65
2019-01-23T02:53:15.133Z,77.97
2019-01-23T02:53:50.748Z,74.12
2019-01-23T02:54:26.376Z,73.90
2019-01-23T02:55:02.120Z,71.55
2019-01-23T02:55:37.764Z,75.47
2019-01-23T02:56:13.377Z,72.00
2019-01-23T02:56:49.130Z,73.33
2019-01-23T02:57:24.834Z,71.95
2019-01-23T02:58:00.420Z,72.82
2019-01-23T02:58:36.025Z,72.95
2019-01-23T02:59:17.330Z,71.30
2019-01-23T02:59:48.991Z,70.97
2019-01-23T03:00:24.644Z,81.20
2019-01-23T03:01:00.346Z,77.78
2019-01-23T03:01:35.866Z,69.27
2019-01-23T03:02:11.385Z,77.53
2019-01-23T03:02:47.371Z,70.15
2019-01-23T03:03:22.957Z,79.15
2019-01-23T03:03:58.498Z,86.05
2019-01-23T03:04:34.260Z,73.30
2019-01-23T03:05:11.957Z,76.33
2019-01-23T03:05:47.651Z,71.30
2019-01-23T03:06:23.198Z,79.90
2019-01-23T03:06:59.104Z,78.12
2019-01-23T03:07:34.642Z,73.50
2019-01-23T03:08:10.263Z,73.65
2019-01-23T03:08:45.816Z,71.05
2019-01-23T03:09:21.385Z,69.70
2019-01-23T03:09:57.142Z,66.82
2019-01-23T03:10:32.942Z,74.27
2019-01-23T03:11:08.756Z,81.15
2019-01-23T03:11:44.496Z,72.62
2019-01-23T03:12:20.203Z,66.47
2019-01-23T03:12:55.854Z,66.90
2019-01-23T03:13:31.500Z,68.28
2019-01-23T03:14:07.355Z,67.08
2019-01-23T03:14:43.042Z,65.92
2019-01-23T03:15:19.136Z,62.20
2019-01-23T03:15:54.706Z,63.50
2019-01-23T03:16:30.536Z,55.30
2019-01-23T03:17:06.071Z,61.20
2019-01-23T03:17:41.582Z,62.27
2019-01-23T03:18:17.224Z,58.35
2019-01-23T03:18:52.914Z,42.58
2019-01-23T03:19:28.519Z,57.93
2019-01-23T03:20:04.245Z,55.35
2019-01-23T03:20:39.762Z,56.55
2019-01-23T03:21:15.396Z,59.58
2019-01-23T03:21:50.926Z,50.28
2019-01-23T03:22:26.463Z,62.73
2019-01-23T03:23:02.032Z,51.55
2019-01-23T03:23:37.847Z,53.60
2019-01-23T03:24:13.566Z,50.28
2019-01-23T03:24:49.163Z,51.30
2019-01-23T03:25:24.786Z,52.40
2019-01-23T03:26:00.496Z,56.42
2019-01-23T03:26:36.336Z,55.58
2019-01-23T03:27:11.996Z,44.18
2019-01-23T03:27:47.739Z,57.67
2019-01-23T03:28:23.267Z,59.05
2019-01-23T03:28:59.136Z,50.10
2019-01-23T03:29:35.116Z,56.68
2019-01-23T03:30:19.464Z,60.73
2019-01-23T03:30:55.124Z,50.48
2019-01-23T03:31:31.085Z,50.35
2019-01-23T03:32:06.870Z,45.25
2019-01-23T03:32:42.490Z,55.48
2019-01-23T03:33:18.430Z,49.60
2019-01-23T03:33:54.140Z,56.45
2019-01-23T03:34:29.701Z,51.53
2019-01-23T03:35:06.435Z,48.20
2019-01-23T03:35:42.207Z,52.10
2019-01-23T03:36:17.856Z,54.67
2019-01-23T03:36:53.668Z,52.67
2019-01-23T03:37:29.627Z,53.52
2019-01-23T03:38:05.391Z,57.93
2019-01-23T03:38:41.106Z,52.60
2019-01-23T03:39:16.763Z,60.58
2019-01-23T03:39:52.519Z,53.98
2019-01-23T03:40:28.307Z,61.75
2019-01-23T03:41:04.154Z,57.70
2019-01-23T03:41:39.702Z,59.42
2019-01-23T03:42:15.261Z,56.68
2019-01-23T03:42:50.963Z,60.38
2019-01-23T03:43:26.649Z,59.13
2019-01-23T03:44:02.245Z,60.83
2019-01-23T03:44:38.092Z,51.37
2019-01-23T03:45:14.575Z,59.80
2019-01-23T03:45:50.359Z,59.90
2019-01-23T03:46:26.142Z,50.83
2019-01-23T03:47:01.885Z,59.93
2019-01-23T03:47:37.529Z,57.62
2019-01-23T03:48:13.350Z,53.23
2019-01-23T03:48:49.147Z,59.70
2019-01-23T03:49:24.902Z,48.85
2019-01-23T03:50:00.689Z,53.17
2019-01-23T03:50:36.323Z,48.13
2019-01-23T03:51:12.155Z,51.30
2019-01-23T03:51:47.903Z,52.78
2019-01-23T03:52:23.475Z,52.45
2019-01-23T03:52:59.126Z,55.92
2019-01-23T03:53:34.781Z,48.55
2019-01-23T03:54:10.466Z,46.20
2019-01-23T03:54:46.005Z,57.05
2019-01-23T03:55:21.774Z,54.13
2019-01-23T03:55:57.487Z,55.75
2019-01-23T03:56:33.128Z,44.80
2019-01-23T03:57:08.755Z,50.88
2019-01-23T03:57:44.327Z,33.18
2019-01-23T03:58:19.911Z,41.37
2019-01-23T03:58:55.459Z,47.50
2019-01-23T03:59:32.282Z,48.68
2019-01-23T04:00:10.522Z,54.88
2019-01-23T04:00:46.479Z,58.80
2019-01-23T04:01:22.117Z,56.85
2019-01-23T04:01:57.868Z,48.40
2019-01-23T04:02:33.509Z,50.55
2019-01-23T04:03:09.177Z,56.75
2019-01-23T04:03:44.770Z,51.13
2019-01-23T04:04:20.390Z,44.20
2019-01-23T04:04:56.049Z,42.50
2019-01-23T04:05:31.570Z,54.35
2019-01-23T04:06:07.300Z,53.90
2019-01-23T04:06:43.209Z,55.33
2019-01-23T04:07:18.764Z,49.40
2019-01-23T04:07:54.530Z,64.58
2019-01-23T04:08:30.046Z,57.98
2019-01-23T04:09:08.601Z,56.58
2019-01-23T04:09:44.283Z,48.48
2019-01-23T04:10:20.009Z,53.45
2019-01-23T04:10:55.673Z,57.70
2019-01-23T04:11:31.407Z,58.02
2019-01-23T04:12:07.110Z,55.98
2019-01-23T04:12:42.896Z,62.33
2019-01-23T04:13:18.509Z,56.55
2019-01-23T04:13:54.373Z,57.10
2019-01-23T04:14:30.094Z,61.85
2019-01-23T04:15:09.511Z,60.75
2019-01-23T04:15:45.159Z,54.27
2019-01-23T04:16:20.790Z,54.20
2019-01-23T04:16:56.423Z,48.95
2019-01-23T04:17:32.166Z,62.33
2019-01-23T04:18:07.774Z,48.02
2019-01-23T04:18:43.482Z,44.13
2019-01-23T04:19:19.173Z,57.00
2019-01-23T04:19:54.918Z,58.92
2019-01-23T04:20:30.811Z,61.23
2019-01-23T04:21:06.681Z,57.20
2019-01-23T04:21:42.462Z,55.43
2019-01-23T04:22:18.295Z,52.70
2019-01-23T04:22:54.080Z,58.10
2019-01-23T04:23:29.728Z,50.38
2019-01-23T04:24:05.621Z,50.00
2019-01-23T04:24:41.450Z,59.23
2019-01-23T04:25:17.362Z,61.73
2019-01-23T04:25:53.063Z,59.18
2019-01-23T04:26:28.769Z,55.20
2019-01-23T04:27:04.580Z,57.80
2019-01-23T04:27:40.313Z,59.63
2019-01-23T04:28:16.343Z,51.88
2019-01-23T04:28:52.317Z,57.40
2019-01-23T04:29:27.905Z,59.30
2019-01-23T04:30:03.653Z,53.52
2019-01-23T04:30:39.371Z,61.25
2019-01-23T04:31:15.206Z,57.90
2019-01-23T04:31:51.017Z,52.00
2019-01-23T04:32:26.806Z,51.80
2019-01-23T04:33:02.388Z,59.00
2019-01-23T04:33:38.120Z,56.63
2019-01-23T04:34:13.982Z,52.25
2019-01-23T04:34:49.836Z,53.55
2019-01-23T04:35:25.495Z,52.13
2019-01-23T04:36:01.275Z,55.92
2019-01-23T04:36:37.118Z,53.98
2019-01-23T04:37:12.759Z,57.95
2019-01-23T04:37:48.571Z,61.98
2019-01-23T04:38:24.387Z,54.70
2019-01-23T04:39:00.066Z,59.42
2019-01-23T04:39:35.605Z,57.93
2019-01-23T04:40:11.868Z,66.22
2019-01-23T04:40:47.654Z,59.93
2019-01-23T04:41:23.350Z,60.45
2019-01-23T04:41:58.836Z,66.28
2019-01-23T04:42:34.500Z,52.88
2019-01-23T04:43:10.071Z,62.38
2019-01-23T04:43:46.041Z,63.58
2019-01-23T04:44:21.888Z,54.73
2019-01-23T04:44:57.556Z,52.00
2019-01-23T04:45:33.245Z,62.80
2019-01-23T04:46:09.179Z,35.15
2019-01-23T04:46:44.826Z,57.27
2019-01-23T04:47:20.501Z,60.65
2019-01-23T04:47:56.131Z,62.55
2019-01-23T04:48:31.729Z,55.58
2019-01-23T04:49:07.460Z,58.52
2019-01-23T04:49:43.302Z,46.58
2019-01-23T04:50:19.378Z,50.03
2019-01-23T04:51:12.171Z,57.58
2019-01-23T04:51:55.132Z,58.90
2019-01-23T04:52:38.343Z,61.75
2019-01-23T04:53:19.200Z,61.95
2019-01-23T04:53:55.129Z,61.50
2019-01-23T04:54:30.845Z,67.10
2019-01-23T04:55:07.011Z,66.12
2019-01-23T04:55:42.537Z,69.47
2019-01-23T04:56:18.405Z,60.33
2019-01-23T04:56:54.335Z,66.00
2019-01-23T04:57:29.939Z,55.30
2019-01-23T04:58:05.502Z,57.53
2019-01-23T04:58:41.356Z,63.20
2019-01-23T04:59:17.684Z,61.30
2019-01-23T04:59:53.391Z,62.03
2019-01-23T05:00:29.874Z,67.58
2019-01-23T05:01:05.833Z,63.08
2019-01-23T05:01:41.471Z,64.22
2019-01-23T05:02:17.199Z,59.63
2019-01-23T05:02:52.993Z,70.22
2019-01-23T05:03:28.990Z,60.20
2019-01-23T05:04:05.268Z,65.87
2019-01-23T05:04:41.052Z,64.22
2019-01-23T05:05:16.699Z,73.67
2019-01-23T05:05:52.382Z,64.85
2019-01-23T05:06:28.037Z,74.82
2019-01-23T05:07:03.927Z,79.32
2019-01-23T05:07:40.467Z,66.12
2019-01-23T05:08:16.241Z,61.00
2019-01-23T05:08:52.167Z,63.45
2019-01-23T05:09:28.044Z,64.60
2019-01-23T05:10:03.898Z,60.23
2019-01-23T05:10:39.735Z,62.67
2019-01-23T05:11:15.389Z,61.55
2019-01-23T05:11:51.139Z,61.88
2019-01-23T05:12:27.000Z,52.17
2019-01-23T05:13:02.780Z,60.17
2019-01-23T05:13:38.334Z,53.17
2019-01-23T05:14:13.993Z,64.32
2019-01-23T05:14:49.824Z,59.85
2019-01-23T05:15:25.499Z,46.55
2019-01-23T05:16:01.279Z,66.17
2019-01-23T05:16:37.077Z,77.17
2019-01-23T05:17:12.874Z,69.60
2019-01-23T05:17:48.879Z,66.70
2019-01-23T05:18:24.573Z,65.78
2019-01-23T05:19:00.416Z,77.27
2019-01-23T05:19:36.408Z,74.47
2019-01-23T05:20:13.026Z,68.45
2019-01-23T05:20:48.866Z,67.72
2019-01-23T05:21:24.377Z,67.75
2019-01-23T05:22:00.041Z,61.28
2019-01-23T05:22:35.793Z,60.12
2019-01-23T05:23:11.712Z,56.13
2019-01-23T05:23:47.326Z,68.35
2019-01-23T05:24:23.085Z,67.15
2019-01-23T05:24:58.722Z,69.15
2019-01-23T05:25:34.585Z,70.70
2019-01-23T05:26:10.403Z,67.78
2019-01-23T05:26:46.167Z,63.98
2019-01-23T05:27:22.325Z,66.07
2019-01-23T05:27:57.996Z,72.40
2019-01-23T05:28:33.648Z,62.85
2019-01-23T05:29:09.280Z,61.85
2019-01-23T05:29:45.243Z,60.63
2019-01-23T05:30:25.305Z,69.50
2019-01-23T05:31:00.970Z,81.15
2019-01-23T05:31:36.823Z,67.32
2019-01-23T05:32:12.707Z,70.83
2019-01-23T05:32:48.444Z,62.67
2019-01-23T05:33:24.282Z,66.90
2019-01-23T05:33:59.940Z,64.40
2019-01-23T05:34:35.703Z,71.07
2019-01-23T05:35:11.786Z,68.35
2019-01-23T05:35:47.553Z,70.00
2019-01-23T05:36:23.286Z,69.37
2019-01-23T05:36:58.907Z,64.10
2019-01-23T05:37:34.649Z,67.75
2019-01-23T05:38:10.280Z,63.85
2019-01-23T05:38:46.103Z,71.87
2019-01-23T05:39:21.747Z,69.85
2019-01-23T05:39:57.449Z,81.78
2019-01-23T05:40:33.139Z,68.75
2019-01-23T05:41:09.016Z,66.97
2019-01-23T05:41:44.896Z,68.72
2019-01-23T05:42:20.585Z,72.97
2019-01-23T05:42:56.402Z,66.22
2019-01-23T05:43:32.177Z,68.22
2019-01-23T05:44:07.841Z,74.87
2019-01-23T05:44:43.570Z,68.50
2019-01-23T05:45:19.465Z,66.67
2019-01-23T05:45:54.995Z,64.62
2019-01-23T05:46:30.808Z,78.70
2019-01-23T05:47:06.487Z,76.15
2019-01-23T05:47:42.249Z,61.53
2019-01-23T05:48:17.922Z,72.37
2019-01-23T05:48:53.775Z,65.12
2019-01-23T05:49:29.481Z,54.27
2019-01-23T05:50:05.493Z,68.33
2019-01-23T05:50:41.312Z,66.33
2019-01-23T05:51:17.164Z,61.53
2019-01-23T05:51:52.915Z,64.17
2019-01-23T05:52:28.735Z,65.92
2019-01-23T05:53:04.426Z,59.58
2019-01-23T05:53:40.482Z,68.22
2019-01-23T05:54:16.306Z,77.37
2019-01-23T05:54:52.124Z,73.65
2019-01-23T05:55:28.101Z,74.62
2019-01-23T05:56:04.246Z,75.03
2019-01-23T05:56:39.817Z,74.60
2019-01-23T05:57:15.572Z,72.58
2019-01-23T05:57:51.394Z,66.97
2019-01-23T05:58:27.273Z,72.92
2019-01-23T05:59:03.144Z,63.95
2019-01-23T05:59:39.012Z,60.23
2019-01-23T06:00:16.968Z,60.20
2019-01-23T06:00:52.979Z,52.73
2019-01-23T06:01:28.837Z,63.58
2019-01-23T06:02:04.859Z,60.25
2019-01-23T06:02:40.794Z,53.65
2019-01-23T06:03:16.877Z,53.83
2019-01-23T06:03:52.909Z,57.23
2019-01-23T06:04:28.699Z,48.95
2019-01-23T06:05:04.777Z,63.15
2019-01-23T06:05:40.495Z,54.08
2019-01-23T06:06:16.371Z,64.30
2019-01-23T06:06:52.362Z,62.20
2019-01-23T06:07:28.008Z,56.60
2019-01-23T06:08:03.825Z,60.48
2019-01-23T06:08:39.749Z,64.58
2019-01-23T06:09:19.097Z,55.48
2019-01-23T06:09:54.933Z,52.70
2019-01-23T06:10:30.740Z,62.45
2019-01-23T06:11:06.409Z,56.90
2019-01-23T06:11:42.423Z,61.13
2019-01-23T06:12:18.924Z,58.02
2019-01-23T06:12:54.913Z,58.08
2019-01-23T06:13:30.950Z,54.13
2019-01-23T06:14:06.841Z,52.35
2019-01-23T06:14:42.847Z,57.45
2019-01-23T06:15:18.817Z,53.80
2019-01-23T06:15:54.962Z,39.67
2019-01-23T06:16:30.895Z,53.00
2019-01-23T06:17:06.953Z,53.83
2019-01-23T06:17:42.877Z,43.90
2019-01-23T06:18:18.725Z,59.93
2019-01-23T06:18:54.464Z,51.18
2019-01-23T06:19:30.608Z,54.73
2019-01-23T06:20:09.012Z,56.18
2019-01-23T06:20:45.100Z,58.42
2019-01-23T06:21:21.040Z,49.93
2019-01-23T06:21:58.081Z,46.55
2019-01-23T06:22:33.780Z,60.67
2019-01-23T06:23:09.344Z,58.10
2019-01-23T06:23:45.240Z,57.80
2019-01-23T06:24:21.430Z,55.73
2019-01-23T06:24:57.454Z,61.02
2019-01-23T06:25:33.423Z,64.53
2019-01-23T06:26:09.393Z,64.53
2019-01-23T06:26:45.152Z,61.58
2019-01-23T06:27:21.665Z,63.20
2019-01-23T06:27:57.418Z,59.03
2019-01-23T06:28:33.380Z,60.08
2019-01-23T06:29:09.513Z,48.35
2019-01-23T06:29:45.433Z,58.50
2019-01-23T06:30:26.312Z,54.08
2019-01-23T06:31:02.139Z,58.50
2019-01-23T06:31:37.747Z,56.53
2019-01-23T06:32:13.492Z,46.40
2019-01-23T06:32:49.244Z,62.27
2019-01-23T06:33:25.138Z,45.08
2019-01-23T06:34:01.131Z,52.83
2019-01-23T06:34:37.023Z,45.78
2019-01-23T06:35:13.147Z,49.65
2019-01-23T06:35:49.066Z,48.13
2019-01-23T06:36:25.354Z,46.65
2019-01-23T06:37:01.366Z,45.83
2019-01-23T06:37:37.276Z,47.03
2019-01-23T06:38:13.090Z,41.90
2019-01-23T06:38:48.788Z,35.45
2019-01-23T06:39:24.389Z,44.18
2019-01-23T06:40:00.243Z,46.70
2019-01-23T06:40:36.329Z,54.67
2019-01-23T06:41:12.101Z,31.17
2019-01-23T06:41:47.913Z,54.98
2019-01-23T06:42:23.672Z,53.68
2019-01-23T06:42:59.216Z,56.95
2019-01-23T06:43:35.063Z,62.23
2019-01-23T06:44:11.007Z,55.33
2019-01-23T06:44:47.064Z,53.70
2019-01-23T06:45:23.115Z,54.33
2019-01-23T06:45:58.843Z,56.10
2019-01-23T06:46:34.576Z,51.75
2019-01-23T06:47:10.614Z,58.15
2019-01-23T06:47:46.598Z,59.90
2019-01-23T06:48:22.353Z,57.65
2019-01-23T06:48:58.348Z,53.90
2019-01-23T06:49:34.008Z,52.62
2019-01-23T06:50:12.822Z,54.20
2019-01-23T06:50:49.276Z,45.60
2019-01-23T06:51:25.124Z,42.45
2019-01-23T06:52:01.001Z,53.00
2019-01-23T06:52:36.865Z,53.17
2019-01-23T06:53:14.251Z,41.48
2019-01-23T06:53:50.512Z,55.40
2019-01-23T06:54:26.237Z,51.15
2019-01-23T06:55:01.986Z,58.73
2019-01-23T06:55:37.733Z,55.48
2019-01-23T06:56:13.616Z,52.60
2019-01-23T06:56:49.260Z,54.08
2019-01-23T06:57:25.393Z,50.73
2019-01-23T06:58:01.344Z,63.13
2019-01-23T06:58:36.990Z,56.53
2019-01-23T06:59:12.678Z,57.10
2019-01-23T06:59:48.373Z,47.93
2019-01-23T07:00:26.232Z,53.42
2019-01-23T07:01:02.399Z,57.48
2019-01-23T07:01:38.245Z,53.55
2019-01-23T07:02:14.504Z,48.10
2019-01-23T07:02:50.520Z,45.40
2019-01-23T07:03:26.357Z,54.08
2019-01-23T07:04:02.239Z,55.75
2019-01-23T07:04:38.077Z,54.58
2019-01-23T07:05:14.399Z,38.90
2019-01-23T07:05:50.174Z,61.00
2019-01-23T07:06:26.603Z,61.80
2019-01-23T07:07:02.370Z,50.30
2019-01-23T07:07:38.578Z,53.13
2019-01-23T07:08:14.349Z,58.15
2019-01-23T07:08:49.988Z,51.42
2019-01-23T07:09:25.653Z,56.37
2019-01-23T07:10:01.509Z,54.65
2019-01-23T07:10:37.187Z,56.42
2019-01-23T07:11:13.042Z,57.95
2019-01-23T07:11:48.775Z,60.23
2019-01-23T07:12:24.375Z,60.30
2019-01-23T07:13:00.407Z,58.20
2019-01-23T07:13:36.253Z,58.52
2019-01-23T07:14:12.186Z,47.90
2019-01-23T07:14:48.317Z,46.15
2019-01-23T07:15:24.510Z,53.15
2019-01-23T07:16:00.262Z,35.30
2019-01-23T07:16:36.029Z,37.25
2019-01-23T07:17:11.770Z,54.93
2019-01-23T07:17:47.616Z,58.13
2019-01-23T07:18:23.554Z,58.23
2019-01-23T07:18:59.336Z,59.77
2019-01-23T07:19:35.519Z,50.92
2019-01-23T07:20:14.769Z,53.42
2019-01-23T07:20:50.878Z,49.27
2019-01-23T07:21:27.041Z,50.98
2019-01-23T07:22:03.389Z,49.35
2019-01-23T07:22:39.480Z,50.45
2019-01-23T07:23:15.573Z,49.67
2019-01-23T07:23:51.434Z,51.28
2019-01-23T07:24:28.437Z,51.02
2019-01-23T07:25:04.421Z,58.15
2019-01-23T07:25:40.317Z,48.85
2019-01-23T07:26:16.110Z,42.48
2019-01-23T07:26:52.070Z,44.80
2019-01-23T07:27:27.895Z,49.50
2019-01-23T07:28:03.647Z,52.93
2019-01-23T07:28:39.416Z,49.23
2019-01-23T07:29:15.749Z,55.40
2019-01-23T07:29:51.484Z,52.53
2019-01-23T07:30:32.942Z,54.10
2019-01-23T07:31:08.921Z,55.78
2019-01-23T07:31:45.124Z,51.92
2019-01-23T07:32:21.149Z,59.73
2019-01-23T07:32:57.038Z,60.48
2019-01-23T07:33:32.934Z,57.33
2019-01-23T07:34:08.972Z,50.48
2019-01-23T07:34:44.765Z,57.65
2019-01-23T07:35:20.687Z,61.45
2019-01-23T07:35:56.480Z,53.10
2019-01-23T07:36:32.464Z,56.68
2019-01-23T07:37:08.874Z,57.03
2019-01-23T07:37:44.733Z,56.55
2019-01-23T07:38:20.406Z,59.42
2019-01-23T07:38:56.226Z,63.15
2019-01-23T07:39:32.296Z,66.28
2019-01-23T07:40:11.682Z,59.38
2019-01-23T07:40:47.585Z,65.15
2019-01-23T07:41:23.820Z,62.03
2019-01-23T07:41:59.466Z,64.45
2019-01-23T07:42:35.274Z,49.73